Time;durP1;ratioP1;P1;durP2;ratioP2;P2;SDS_P1;SDS_P2;PMS_P1;PMS_P2;Temp;Humidity;BMP_temperature;BMP_pressure;BME280_temperature;BME280_humidity;BME280_pressure;Samples;Min_cycle;Max_cycle;Signal;HPM_P1;HPM_P2
2022/11/28 05:22:34;;;;;;;8.88;4.70;;;;;;;3.04;100.00;99953.41;5109334;27;20399;-65
2022/11/28 05:24:59;;;;;;;9.20;5.53;;;;;;;2.98;100.00;99955.59;5109650;28;20039;-66
2022/11/28 05:27:25;;;;;;;12.13;6.50;;;;;;;3.07;100.00;99961.03;5108289;28;20409;-66
2022/11/28 05:29:52;;;;;;;9.93;5.60;;;;;;;3.09;100.00;99965.19;5109496;28;20114;-66
2022/11/28 05:32:17;;;;;;;11.13;5.97;;;;;;;3.11;100.00;99957.16;5109075;28;20047;-66
2022/11/28 05:34:42;;;;;;;11.23;5.97;;;;;;;3.10;100.00;99948.44;5115173;22;20068;-67
2022/11/28 05:37:08;;;;;;;9.75;5.38;;;;;;;3.13;100.00;99948.19;5088246;28;20127;-67
2022/11/28 05:39:33;;;;;;;12.23;6.28;;;;;;;3.21;100.00;99934.34;5089016;28;20036;-66
2022/11/28 05:41:59;;;;;;;9.65;6.03;;;;;;;3.24;100.00;99927.00;5088661;28;20397;-66
2022/11/28 05:44:24;;;;;;;9.35;5.38;;;;;;;3.19;100.00;99923.94;5103739;28;20477;-66
2022/11/28 05:46:50;;;;;;;9.45;6.40;;;;;;;3.23;100.00;99932.41;5108974;28;20115;-65
2022/11/28 05:49:15;;;;;;;8.65;5.57;;;;;;;3.23;100.00;99916.63;5107888;28;20119;-67
2022/11/28 05:51:42;;;;;;;12.02;6.20;;;;;;;3.28;100.00;99913.59;5108739;28;20035;-66
2022/11/28 05:54:07;;;;;;;10.27;5.57;;;;;;;3.34;100.00;99918.31;5107429;28;20081;-66
2022/11/28 05:56:33;;;;;;;7.97;4.63;;;;;;;3.36;100.00;99917.22;5108839;28;20047;-67
2022/11/28 05:58:59;;;;;;;8.18;5.22;;;;;;;3.38;100.00;99925.78;5108839;28;20036;-66
2022/11/28 06:01:27;;;;;;;10.50;5.68;;;;;;;3.37;100.00;99931.19;5090472;28;20031;-67
2022/11/28 06:03:59;;;;;;;13.23;5.68;;;;;;;3.36;100.00;99921.66;5108627;28;20040;-67
2022/11/28 06:06:29;;;;;;;11.10;5.40;;;;;;;3.41;100.00;99932.63;5108638;28;20040;-67
2022/11/28 06:08:54;;;;;;;8.82;4.47;;;;;;;3.46;100.00;99927.78;5107717;28;20043;-67
2022/11/28 06:11:22;;;;;;;8.82;5.18;;;;;;;3.39;100.00;99924.84;5108553;28;20031;-66
2022/11/28 06:13:51;;;;;;;7.32;4.45;;;;;;;3.46;100.00;99927.78;5107125;28;20400;-66
2022/11/28 06:16:21;;;;;;;17.88;5.22;;;;;;;3.42;100.00;99929.84;5108800;28;20070;-67
2022/11/28 06:18:50;;;;;;;9.32;4.60;;;;;;;3.41;100.00;99932.63;5108516;28;20036;-67
2022/11/28 06:21:15;;;;;;;6.97;4.35;;;;;;;3.45;100.00;99940.09;5108345;28;20477;-66
2022/11/28 06:23:41;;;;;;;8.35;5.25;;;;;;;3.49;100.00;99936.22;5108393;28;20043;-66
2022/11/28 06:26:13;;;;;;;8.98;5.32;;;;;;;3.50;100.00;99935.25;5107156;28;20043;-65
2022/11/28 06:28:39;;;;;;;7.28;4.40;;;;;;;3.46;100.00;99941.78;5108172;28;20044;-67
2022/11/28 06:31:22;;;;;;;7.15;4.45;;;;;;;3.51;100.00;99944.81;5107852;28;20392;-66
2022/11/28 06:33:49;;;;;;;9.57;4.63;;;;;;;3.49;100.00;99938.03;5095360;28;20120;-66
2022/11/28 06:36:16;;;;;;;7.80;4.63;;;;;;;3.53;100.00;99940.25;5094489;28;20038;-67
2022/11/28 06:38:42;;;;;;;10.30;4.50;;;;;;;3.53;100.00;99950.81;5094509;28;20404;-68
2022/11/28 06:41:10;;;;;;;7.20;4.45;;;;;;;3.53;100.00;99955.25;5094106;28;20038;-67
2022/11/28 06:43:36;;;;;;;9.13;5.20;;;;;;;3.57;100.00;99961.06;5094217;28;20051;-67
2022/11/28 06:46:02;;;;;;;7.97;4.28;;;;;;;3.53;100.00;99958.69;5094200;28;20036;-67
2022/11/28 06:48:28;;;;;;;11.18;5.13;;;;;;;3.54;100.00;99963.00;5094316;28;20062;-67
2022/11/28 06:51:01;;;;;;;8.45;4.60;;;;;;;3.51;100.00;99957.97;5093819;28;20485;-63
2022/11/28 06:53:27;;;;;;;9.50;5.22;;;;;;;3.53;100.00;99956.06;5094462;28;20055;-61
2022/11/28 06:55:52;;;;;;;9.27;5.15;;;;;;;3.48;100.00;99957.44;5093028;28;20400;-62
2022/11/28 06:58:18;;;;;;;7.50;4.68;;;;;;;3.52;100.00;99964.94;5094313;28;20032;-61
2022/11/28 07:00:44;;;;;;;7.97;4.55;;;;;;;3.41;100.00;99964.22;5093578;28;20043;-61
2022/11/28 07:03:11;;;;;;;10.18;5.90;;;;;;;3.38;100.00;99970.56;5093796;28;20071;-62
2022/11/28 07:05:37;;;;;;;9.13;5.25;;;;;;;3.46;100.00;99962.84;5092625;28;20046;-62
2022/11/28 07:08:03;;;;;;;8.73;4.75;;;;;;;3.51;100.00;99979.06;5092537;28;20082;-60
2022/11/28 07:10:28;;;;;;;7.97;5.25;;;;;;;3.49;100.00;99974.91;5093564;28;20071;-59
2022/11/28 07:12:55;;;;;;;7.70;4.53;;;;;;;3.56;100.00;99964.66;5093634;28;20123;-63
2022/11/28 07:15:21;;;;;;;9.82;4.97;;;;;;;3.53;100.00;99977.13;5093716;28;20051;-62
2022/11/28 07:17:46;;;;;;;9.45;4.68;;;;;;;3.53;100.00;99976.31;5081747;28;20037;-62
2022/11/28 07:20:12;;;;;;;9.15;4.50;;;;;;;3.56;100.00;99976.03;5074704;28;20064;-63
2022/11/28 07:22:38;;;;;;;10.88;5.85;;;;;;;3.59;100.00;99967.88;5093508;28;20040;-61
2022/11/28 07:25:04;;;;;;;8.00;4.72;;;;;;;3.59;100.00;99975.78;5093674;28;20092;-59
2022/11/28 07:27:29;;;;;;;7.72;4.75;;;;;;;3.56;100.00;99983.94;5093454;28;20120;-59
2022/11/28 07:29:54;;;;;;;7.45;4.45;;;;;;;3.59;100.00;99981.03;5093371;28;20400;-60
2022/11/28 07:32:20;;;;;;;5.53;4.07;;;;;;;3.58;100.00;99981.16;5093126;28;20040;-62
2022/11/28 07:34:45;;;;;;;7.32;5.35;;;;;;;3.64;100.00;99975.34;5093193;28;20488;-61
2022/11/28 07:37:11;;;;;;;8.85;5.07;;;;;;;3.56;100.00;99975.19;5093189;28;20044;-61
2022/11/28 07:39:37;;;;;;;8.63;4.13;;;;;;;3.61;100.00;99973.00;5093258;28;20169;-57
2022/11/28 07:42:06;;;;;;;6.70;4.60;;;;;;;3.60;100.00;99976.59;5091601;28;20036;-62
2022/11/28 07:44:31;;;;;;;6.20;4.53;;;;;;;3.52;100.00;99988.66;5092133;28;20047;-62
2022/11/28 07:46:56;;;;;;;7.88;4.38;;;;;;;3.58;100.00;99989.88;5093156;28;20485;-61
2022/11/28 07:49:22;;;;;;;7.35;4.25;;;;;;;3.63;100.00;99982.41;5093079;28;20489;-60
2022/11/28 07:51:47;;;;;;;6.25;4.53;;;;;;;3.59;100.00;99981.03;5092474;28;20078;-59
2022/11/28 07:54:12;;;;;;;8.65;4.82;;;;;;;3.64;100.00;99978.81;5092898;28;20032;-60
2022/11/28 07:56:38;;;;;;;5.75;4.05;;;;;;;3.68;100.00;99985.47;5092983;28;20485;-61
2022/11/28 07:59:04;;;;;;;8.35;4.95;;;;;;;3.70;100.00;99987.97;5092904;28;20032;-60
2022/11/28 08:01:34;;;;;;;7.45;4.47;;;;;;;3.74;100.00;99978.84;5092580;28;20063;-55
2022/11/28 08:04:01;;;;;;;7.10;4.60;;;;;;;3.74;100.00;99973.56;5092812;28;20043;-63
2022/11/28 08:06:29;;;;;;;6.57;4.78;;;;;;;3.79;100.00;99977.47;5092992;28;20024;-60
2022/11/28 08:08:58;;;;;;;7.75;5.03;;;;;;;3.85;100.00;99980.50;5092596;28;20112;-60
2022/11/28 08:11:24;;;;;;;7.13;4.53;;;;;;;3.89;100.00;99984.53;5092291;28;20047;-62
2022/11/28 08:13:50;;;;;;;9.13;4.63;;;;;;;3.91;100.00;99991.38;5092556;28;20117;-60
2022/11/28 08:16:18;;;;;;;7.68;4.55;;;;;;;3.94;100.00;99995.50;5092699;28;20059;-60
2022/11/28 08:18:45;;;;;;;8.05;5.28;;;;;;;3.93;100.00;99986.78;5092766;28;20036;-59
2022/11/28 08:21:31;;;;;;;8.00;4.75;;;;;;;3.95;100.00;99984.84;5092256;28;20047;-57
2022/11/28 08:24:01;;;;;;;7.03;4.45;;;;;;;4.00;100.00;99979.16;5092620;28;20157;-60
2022/11/28 08:26:27;;;;;;;9.25;5.47;;;;;;;3.99;100.00;99980.97;5091074;28;20043;-62
2022/11/28 08:28:53;;;;;;;9.23;5.07;;;;;;;4.02;100.00;99983.31;5090976;28;20097;-62
2022/11/28 08:31:24;;;;;;;5.93;3.80;;;;;;;4.07;100.00;99989.00;5092017;28;20032;-62
2022/11/28 08:33:51;;;;;;;7.70;4.63;;;;;;;4.11;100.00;99976.41;5092148;28;20052;-61
2022/11/28 08:36:18;;;;;;;7.97;4.70;;;;;;;4.11;100.00;99975.53;5092280;28;20064;-62
2022/11/28 08:38:45;;;;;;;6.25;3.97;;;;;;;4.14;100.00;99978.75;5092248;28;20028;-61
2022/11/28 08:41:21;;;;;;;10.43;4.93;;;;;;;4.17;100.00;99967.06;5091775;28;20068;-61
2022/11/28 08:43:46;;;;;;;6.78;4.68;;;;;;;4.20;100.00;99972.91;5092129;28;20047;-56
2022/11/28 08:46:15;;;;;;;7.68;5.53;;;;;;;4.27;100.00;99970.56;5092157;28;20028;-62
2022/11/28 08:48:42;;;;;;;4.30;3.65;;;;;;;4.29;100.00;99977.34;5092203;28;20040;-59
2022/11/28 08:51:13;;;;;;;7.35;4.53;;;;;;;4.35;100.00;99983.88;5091690;28;20161;-62
2022/11/28 08:53:39;;;;;;;5.53;3.60;;;;;;;4.38;100.00;99973.06;5092048;28;20051;-62
2022/11/28 08:56:04;;;;;;;8.50;4.35;;;;;;;4.41;100.00;99972.75;5091635;28;20043;-62
2022/11/28 08:58:30;;;;;;;8.88;5.13;;;;;;;4.45;100.00;99966.25;5091891;28;20491;-62
2022/11/28 09:00:55;;;;;;;7.53;4.80;;;;;;;4.49;100.00;99959.69;5091517;28;20389;-63
2022/11/28 09:03:20;;;;;;;6.43;4.25;;;;;;;4.54;100.00;99956.66;5090494;28;20047;-63
2022/11/28 09:05:46;;;;;;;6.88;4.00;;;;;;;4.57;100.00;99970.41;5091914;28;20149;-62
2022/11/28 09:08:14;;;;;;;12.88;4.85;;;;;;;4.59;100.00;99975.53;5091758;28;20064;-62
2022/11/28 09:10:41;;;;;;;8.30;4.80;;;;;;;4.61;100.00;99968.28;5090281;28;20131;-62
2022/11/28 09:13:07;;;;;;;7.72;4.80;;;;;;;4.62;100.00;99980.50;5091633;28;20064;-62
2022/11/28 09:15:33;;;;;;;6.90;3.40;;;;;;;4.64;100.00;99989.13;5091597;28;20043;-62
2022/11/28 09:17:59;;;;;;;7.55;3.85;;;;;;;4.71;100.00;99992.88;5091800;28;20032;-61
2022/11/28 09:20:25;;;;;;;6.55;3.85;;;;;;;4.75;100.00;99990.75;5090199;28;20039;-62
2022/11/28 09:22:51;;;;;;;9.80;4.35;;;;;;;4.78;100.00;99985.22;5091549;28;20028;-62
2022/11/28 09:25:16;;;;;;;8.68;4.22;;;;;;;4.82;100.00;99984.78;5091528;28;20393;-62
2022/11/28 09:27:42;;;;;;;8.05;4.75;;;;;;;4.90;100.00;99998.09;5091596;28;20492;-62
2022/11/28 09:30:08;;;;;;;7.85;4.60;;;;;;;4.93;100.00;99982.94;5091281;28;20330;-62
2022/11/28 09:32:34;;;;;;;7.72;4.03;;;;;;;4.96;100.00;99993.25;5091221;28;20035;-61
2022/11/28 09:35:00;;;;;;;7.95;4.38;;;;;;;4.99;100.00;99999.03;5091337;28;20036;-62
2022/11/28 09:37:27;;;;;;;6.53;4.50;;;;;;;5.05;100.00;99992.38;5091488;28;20111;-62
2022/11/28 09:39:53;;;;;;;7.55;3.95;;;;;;;5.08;100.00;99995.53;5090173;28;20035;-62
2022/11/28 09:42:28;;;;;;;6.55;3.70;;;;;;;5.11;100.00;99997.91;5091262;28;20035;-63
2022/11/28 09:45:05;;;;;;;9.57;4.47;;;;;;;5.11;100.00;100002.34;5091281;28;20392;-62
2022/11/28 09:47:33;;;;;;;8.32;4.15;;;;;;;5.18;100.00;100006.91;5091290;28;20040;-63
2022/11/28 09:50:09;;;;;;;4.93;3.83;;;;;;;5.20;100.00;100000.66;5091262;28;20097;-62
2022/11/28 09:52:56;;;;;;;6.53;3.92;;;;;;;5.28;100.00;100011.31;5091116;28;20032;-62
2022/11/28 09:55:33;;;;;;;5.53;4.07;;;;;;;5.31;100.00;100008.41;5091233;28;20040;-62
2022/11/28 09:58:03;;;;;;;9.43;4.60;;;;;;;5.33;100.00;100006.44;5091306;28;20546;-62
2022/11/28 10:00:36;;;;;;;6.82;3.75;;;;;;;5.36;100.00;99993.78;5090929;28;20040;-63
2022/11/28 10:03:52;;;;;;;6.82;4.47;;;;;;;5.43;100.00;99997.50;5091252;28;20068;-62
2022/11/28 10:06:32;;;;;;;8.02;4.40;;;;;;;5.51;100.00;100003.84;5028714;28;20049;-62
2022/11/28 10:09:09;;;;;;;5.75;3.90;;;;;;;5.54;100.00;100006.19;5031710;28;20042;-62
2022/11/28 10:11:55;;;;;;;7.00;3.92;;;;;;;5.61;100.00;100008.13;5077018;28;20481;-62
2022/11/28 10:14:55;;;;;;;6.85;4.32;;;;;;;5.64;100.00;99994.59;5094877;28;20404;-62
2022/11/28 10:17:45;;;;;;;6.65;4.40;;;;;;;5.70;100.00;99987.91;5094827;28;20047;-61
2022/11/28 10:20:19;;;;;;;10.23;4.10;;;;;;;5.70;100.00;99988.72;5094657;28;20392;-62
2022/11/28 10:22:51;;;;;;;7.55;4.57;;;;;;;5.74;100.00;99984.00;5094795;28;20038;-62
2022/11/28 10:25:29;;;;;;;8.25;4.53;;;;;;;5.84;100.00;99978.63;5094079;28;20119;-61
2022/11/28 10:27:56;;;;;;;7.43;4.18;;;;;;;5.82;100.00;99977.97;5095013;28;20050;-62
2022/11/28 10:30:24;;;;;;;5.95;4.00;;;;;;;5.90;100.00;99970.09;5094288;28;20046;-61
2022/11/28 10:32:59;;;;;;;4.63;3.33;;;;;;;5.94;100.00;99967.06;5092963;28;20047;-62
2022/11/28 10:35:47;;;;;;;4.75;3.35;;;;;;;5.97;100.00;99964.09;5095026;28;20027;-61
2022/11/28 10:38:14;;;;;;;8.05;3.92;;;;;;;6.03;100.00;99967.94;5095105;28;20062;-61
2022/11/28 10:40:56;;;;;;;5.70;4.30;;;;;;;6.04;100.00;99956.38;5094274;28;20122;-62
2022/11/28 10:43:45;;;;;;;5.38;3.28;;;;;;;6.16;100.00;99959.66;5092891;28;20416;-62
2022/11/28 10:46:25;;;;;;;6.72;3.78;;;;;;;6.22;100.00;99948.47;5094497;28;20042;-62
2022/11/28 10:49:02;;;;;;;9.23;3.38;;;;;;;6.24;100.00;99938.53;5094332;28;20028;-62
2022/11/28 10:51:33;;;;;;;7.15;3.38;;;;;;;6.36;100.00;99942.63;5093805;28;20073;-63
2022/11/28 10:54:22;;;;;;;4.95;3.50;;;;;;;6.41;100.00;99944.81;5094091;28;20040;-62
2022/11/28 10:56:54;;;;;;;6.22;3.72;;;;;;;6.43;100.00;99926.97;5094252;28;20092;-62
2022/11/28 10:59:34;;;;;;;6.95;3.85;;;;;;;6.53;100.00;99935.66;5094108;28;20040;-62
2022/11/28 11:02:17;;;;;;;5.93;4.22;;;;;;;6.60;100.00;99933.22;5092312;28;20032;-62
2022/11/28 11:04:43;;;;;;;8.98;4.18;;;;;;;6.66;100.00;99933.41;5093976;28;20039;-62
2022/11/28 11:07:22;;;;;;;7.97;4.78;;;;;;;6.70;100.00;99933.91;5093945;28;20396;-62
2022/11/28 11:09:48;;;;;;;8.63;4.63;;;;;;;6.77;100.00;99930.50;5094152;28;20036;-63
2022/11/28 11:12:25;;;;;;;7.25;4.47;;;;;;;6.84;100.00;99929.88;5093521;28;20043;-63
2022/11/28 11:14:51;;;;;;;7.20;3.95;;;;;;;6.88;100.00;99933.88;5093821;28;20040;-62
2022/11/28 11:17:34;;;;;;;7.13;4.57;;;;;;;6.94;100.00;99927.94;5093729;28;20035;-62
2022/11/28 11:20:00;;;;;;;6.22;3.83;;;;;;;6.97;100.00;99931.09;5092259;28;20032;-62
2022/11/28 11:22:30;;;;;;;5.85;4.18;;;;;;;7.05;100.00;99932.97;5093393;28;20046;-61
2022/11/28 11:25:11;;;;;;;6.88;4.43;;;;;;;7.11;100.00;99920.91;5092237;28;20079;-61
2022/11/28 11:27:37;;;;;;;6.72;3.70;;;;;;;7.15;100.00;99923.06;5093552;28;20032;-62
2022/11/28 11:30:41;;;;;;;7.13;4.18;;;;;;;7.20;100.00;99923.44;5093326;28;20032;-62
2022/11/28 11:33:14;;;;;;;7.35;4.20;;;;;;;7.20;100.00;99923.44;5061813;28;20060;-62
2022/11/28 11:35:46;;;;;;;6.35;4.15;;;;;;;7.19;100.00;99919.13;5093451;28;20050;-62
2022/11/28 11:38:21;;;;;;;8.77;4.05;;;;;;;7.26;100.00;99914.84;5091966;28;20040;-62
2022/11/28 11:40:48;;;;;;;8.50;4.28;;;;;;;7.32;100.00;99922.16;5093059;28;20035;-62
2022/11/28 11:43:30;;;;;;;5.57;4.05;;;;;;;7.41;100.00;99919.53;5093184;28;20051;-63
2022/11/28 11:46:08;;;;;;;6.15;4.25;;;;;;;7.47;100.00;99908.28;5093164;28;20086;-61
2022/11/28 11:48:36;;;;;;;5.93;3.58;;;;;;;7.53;100.00;99908.47;5093077;28;20036;-60
2022/11/28 11:51:01;;;;;;;;;;;;;;;7.61;100.00;99905.84;5091930;28;20111;-62
2022/11/28 11:53:26;;;;;;;6.70;4.00;;;;;;;7.71;100.00;99912.84;5093004;28;20018;-63
2022/11/28 11:55:54;;;;;;;10.45;4.25;;;;;;;7.78;100.00;99904.06;5093204;28;20066;-63
2022/11/28 11:58:27;;;;;;;5.43;3.78;;;;;;;7.82;100.00;99902.75;5091779;28;20044;-63
2022/11/28 12:00:57;;;;;;;8.77;3.83;;;;;;;7.85;99.69;99894.47;5091004;28;20062;-63
2022/11/28 12:03:52;;;;;;;8.43;4.15;;;;;;;7.96;99.34;99895.97;5079370;28;20039;-62
2022/11/28 12:06:26;;;;;;;8.07;3.90;;;;;;;8.02;100.00;99892.66;5090755;28;20396;-62
2022/11/28 12:09:05;;;;;;;6.32;4.25;;;;;;;8.07;100.00;99895.63;5092844;28;20134;-63
2022/11/28 12:11:49;;;;;;;6.30;4.43;;;;;;;8.10;98.25;99900.63;5092327;28;20081;-62
2022/11/28 12:14:32;;;;;;;6.22;3.55;;;;;;;8.18;96.25;99893.66;5090985;28;20046;-60
2022/11/28 12:17:25;;;;;;;7.82;3.72;;;;;;;8.21;94.62;99888.81;5075005;28;20029;-62
2022/11/28 12:20:22;;;;;;;7.90;4.38;;;;;;;8.22;95.34;99885.19;5072132;28;20056;-63
2022/11/28 12:23:01;;;;;;;7.28;4.72;;;;;;;8.25;95.95;99886.69;5072091;28;20538;-59
2022/11/28 12:25:29;;;;;;;9.32;4.82;;;;;;;8.29;95.33;99882.69;5072160;28;20343;-62
2022/11/28 12:28:19;;;;;;;6.50;4.18;;;;;;;8.31;97.35;99886.84;5072150;28;20485;-63
2022/11/28 12:31:02;;;;;;;6.25;4.28;;;;;;;8.30;98.84;99877.22;5071298;28;20033;-62
2022/11/28 12:33:38;;;;;;;9.70;4.78;;;;;;;8.29;99.46;99869.44;5072053;28;20040;-63
2022/11/28 12:36:25;;;;;;;7.72;3.67;;;;;;;8.31;99.57;99872.75;5077364;28;20115;-63
2022/11/28 12:39:02;;;;;;;7.80;4.53;;;;;;;8.35;99.19;99866.97;5090913;28;20058;-63
2022/11/28 12:42:04;;;;;;;6.80;4.80;;;;;;;8.38;98.82;99858.66;5091923;28;20451;-63
2022/11/28 12:44:57;;;;;;;5.90;3.72;;;;;;;8.47;98.22;99862.13;5092038;28;20120;-63
2022/11/28 12:47:40;;;;;;;6.35;4.10;;;;;;;8.41;97.99;99862.78;5090721;28;20032;-62
2022/11/28 12:50:21;;;;;;;7.30;4.50;;;;;;;8.50;97.93;99851.19;5091751;28;20503;-62
2022/11/28 12:52:58;;;;;;;6.30;4.07;;;;;;;8.57;97.93;99853.97;5091928;28;20104;-63
2022/11/28 12:55:45;;;;;;;5.95;4.20;;;;;;;8.60;97.46;99854.44;5092020;28;20070;-62
2022/11/28 12:58:31;;;;;;;7.40;4.18;;;;;;;8.56;96.40;99847.84;5090431;28;20059;-63
2022/11/28 13:01:25;;;;;;;10.07;3.90;;;;;;;8.64;95.70;99858.44;5091546;28;20425;-61
2022/11/28 13:04:09;;;;;;;8.43;3.70;;;;;;;8.69;94.89;99855.28;5090363;28;20100;-60
2022/11/28 13:06:47;;;;;;;5.68;3.38;;;;;;;8.70;94.88;99857.75;5091823;28;20032;-63
2022/11/28 13:09:20;;;;;;;8.13;3.60;;;;;;;8.74;95.73;99857.41;5091727;28;20028;-63
2022/11/28 13:12:25;;;;;;;5.30;3.50;;;;;;;8.75;97.29;99851.94;5090237;28;20032;-63
2022/11/28 13:14:54;;;;;;;6.38;3.53;;;;;;;8.76;96.01;99853.59;5091917;28;20068;-61
2022/11/28 13:17:41;;;;;;;6.05;3.53;;;;;;;8.72;94.42;99854.94;5091570;28;20036;-61
2022/11/28 13:20:46;;;;;;;7.65;4.88;;;;;;;8.76;93.96;99850.94;5091548;28;20108;-63
2022/11/28 13:23:27;;;;;;;4.38;3.50;;;;;;;8.76;94.72;99848.28;5079729;28;20048;-63
2022/11/28 13:26:38;;;;;;;4.93;3.88;;;;;;;8.81;96.79;99853.91;5090354;28;20044;-63
2022/11/28 13:29:12;;;;;;;6.10;3.70;;;;;;;8.82;95.91;99849.44;5070736;28;20093;-63
2022/11/28 13:32:03;;;;;;;5.72;3.10;;;;;;;8.82;95.50;99849.44;5091145;28;20127;-63
2022/11/28 13:34:29;;;;;;;6.20;3.22;;;;;;;8.80;94.14;99851.41;5091392;28;20726;-62
2022/11/28 13:37:14;;;;;;;5.80;3.65;;;;;;;8.82;96.48;99850.25;5091545;28;20030;-63
2022/11/28 13:39:40;;;;;;;7.40;3.92;;;;;;;8.75;95.40;99848.47;5091544;28;20061;-64
2022/11/28 13:42:14;;;;;;;5.00;3.15;;;;;;;8.79;97.04;99850.59;5091188;28;20419;-62
2022/11/28 13:44:39;;;;;;;6.85;3.40;;;;;;;8.82;97.31;99846.78;5095411;28;20111;-63
2022/11/28 13:47:27;;;;;;;5.40;3.75;;;;;;;8.81;97.38;99859.22;5095499;28;20487;-63
2022/11/28 13:50:28;;;;;;;4.97;3.03;;;;;;;8.79;96.42;99850.59;5095355;28;20047;-63
2022/11/28 13:53:02;;;;;;;5.57;3.28;;;;;;;8.78;99.26;99858.72;5012837;28;20045;-63
2022/11/28 13:55:51;;;;;;;6.32;3.75;;;;;;;8.76;99.35;99855.44;5082911;28;20488;-63
2022/11/28 13:58:21;;;;;;;8.13;3.65;;;;;;;8.80;99.93;99859.38;5095409;28;20506;-62
2022/11/28 14:01:17;;;;;;;7.13;3.88;;;;;;;8.69;100.00;99849.97;5094959;28;20066;-63
2022/11/28 14:03:57;;;;;;;5.47;3.78;;;;;;;8.70;100.00;99849.78;5078592;28;20089;-63
2022/11/28 14:06:46;;;;;;;4.72;3.58;;;;;;;8.65;100.00;99856.59;5095325;28;20032;-63
2022/11/28 14:09:14;;;;;;;7.97;3.95;;;;;;;8.65;100.00;99853.94;5094009;28;20388;-62
2022/11/28 14:12:01;;;;;;;8.43;4.15;;;;;;;8.59;100.00;99849.31;5093656;28;20400;-59
2022/11/28 14:14:46;;;;;;;7.97;4.10;;;;;;;8.50;100.00;99850.34;5095105;28;20519;-62
2022/11/28 14:17:45;;;;;;;5.93;4.15;;;;;;;8.43;100.00;99844.88;5095290;28;20614;-61
2022/11/28 14:20:29;;;;;;;6.57;4.03;;;;;;;8.44;100.00;99849.19;5094588;28;20060;-63
2022/11/28 14:23:24;;;;;;;5.80;3.70;;;;;;;8.47;100.00;99855.97;5094947;28;20032;-63
2022/11/28 14:25:52;;;;;;;7.45;4.03;;;;;;;8.45;100.00;99855.34;5090971;28;20185;-63
2022/11/28 14:28:32;;;;;;;7.13;4.13;;;;;;;8.45;100.00;99850.03;5093748;28;20040;-63
2022/11/28 14:31:00;;;;;;;;;;;;;;;8.38;100.00;99849.88;5093859;28;20032;-62
2022/11/28 14:33:41;;;;;;;6.43;3.25;;;;;;;8.36;100.00;99852.69;5094502;28;20392;-63
2022/11/28 14:36:25;;;;;;;6.43;3.72;;;;;;;8.35;100.00;99852.84;5094554;28;20068;-62
2022/11/28 14:39:14;;;;;;;14.55;3.67;;;;;;;8.36;100.00;99852.69;5093410;28;20028;-61
2022/11/28 14:42:03;;;;;;;6.53;3.90;;;;;;;8.34;100.00;99848.50;5078207;28;20040;-61
2022/11/28 14:44:49;;;;;;;6.45;4.10;;;;;;;8.31;100.00;99848.84;5094316;28;20110;-62
2022/11/28 14:47:17;;;;;;;8.65;4.75;;;;;;;8.30;100.00;99849.84;5094266;28;20032;-63
2022/11/28 14:49:43;;;;;;;5.55;3.85;;;;;;;8.26;100.00;99849.34;5093012;28;20097;-62
2022/11/28 14:52:20;;;;;;;10.77;4.70;;;;;;;8.25;100.00;99852.19;5093895;28;20431;-62
2022/11/28 14:54:47;;;;;;;5.70;4.20;;;;;;;8.24;100.00;99856.66;5092370;28;20401;-62
2022/11/28 14:57:24;;;;;;;7.68;4.35;;;;;;;8.24;100.00;99848.69;5094189;28;20502;-63
2022/11/28 14:59:50;;;;;;;9.18;4.65;;;;;;;8.24;100.00;99850.53;5092854;28;20040;-63
2022/11/28 15:02:37;;;;;;;7.85;4.93;;;;;;;8.24;100.00;99861.13;5093834;28;20028;-64
2022/11/28 15:05:18;;;;;;;5.00;3.80;;;;;;;8.19;100.00;99869.59;5094014;28;20496;-63
2022/11/28 15:07:59;;;;;;;7.38;3.88;;;;;;;8.18;100.00;99859.97;5092568;28;20147;-63
2022/11/28 15:10:55;;;;;;;10.70;4.35;;;;;;;8.10;100.00;99865.28;5093628;28;20032;-62
2022/11/28 15:13:52;;;;;;;7.18;3.95;;;;;;;8.07;100.00;99855.84;5093838;28;20040;-61
2022/11/28 15:16:19;;;;;;;;;;;;;;;8.02;100.00;99857.31;5092974;28;20043;-62
2022/11/28 15:18:49;;;;;;;8.43;3.97;;;;;;;7.98;100.00;99862.16;5093697;28;19912;-63
2022/11/28 15:21:16;;;;;;;8.75;4.53;;;;;;;7.96;100.00;99858.84;5093555;28;20028;-63
2022/11/28 15:23:42;;;;;;;7.45;3.97;;;;;;;7.97;100.00;99857.00;5092297;28;20020;-63
2022/11/28 15:26:20;;;;;;;7.68;4.53;;;;;;;7.93;100.00;99861.81;5093540;28;20538;-63
2022/11/28 15:28:46;;;;;;;10.23;3.78;;;;;;;7.92;100.00;99860.16;5092339;28;20032;-61
2022/11/28 15:31:20;;;;;;;6.63;4.28;;;;;;;7.83;100.00;99855.84;5091838;28;20066;-63
2022/11/28 15:33:47;;;;;;;4.88;3.72;;;;;;;7.86;100.00;99858.97;5091901;28;20032;-62
2022/11/28 15:36:30;;;;;;;5.65;4.38;;;;;;;7.83;100.00;99858.50;5093377;28;20443;-63
2022/11/28 15:38:56;;;;;;;6.47;4.30;;;;;;;7.79;100.00;99857.16;5092044;28;20382;-60
2022/11/28 15:41:24;;;;;;;8.32;4.72;;;;;;;7.79;100.00;99854.50;5091702;28;20042;-63
2022/11/28 15:43:51;;;;;;;5.72;4.35;;;;;;;7.78;100.00;99859.00;5091916;28;20096;-63
2022/11/28 15:46:26;;;;;;;5.95;3.58;;;;;;;7.76;100.00;99855.69;5091823;28;20028;-62
2022/11/28 15:48:51;;;;;;;6.57;4.85;;;;;;;7.75;100.00;99861.13;5091967;28;20032;-62
2022/11/28 15:51:31;;;;;;;6.88;4.65;;;;;;;7.69;100.00;99857.31;5091667;28;20024;-63
2022/11/28 15:53:58;;;;;;;6.05;4.00;;;;;;;7.59;100.00;99846.03;5091669;28;20040;-63
2022/11/28 15:56:24;;;;;;;6.65;4.32;;;;;;;7.60;100.00;99863.59;5091752;28;20035;-62
2022/11/28 15:58:50;;;;;;;6.50;4.30;;;;;;;7.65;100.00;99855.16;5092370;28;20436;-62
2022/11/28 16:01:24;;;;;;;8.10;4.47;;;;;;;7.62;100.00;99862.44;5092779;28;20107;-62
2022/11/28 16:04:09;;;;;;;7.35;4.30;;;;;;;7.62;100.00;99867.72;5074909;28;20043;-62
2022/11/28 16:06:38;;;;;;;8.20;5.55;;;;;;;7.64;100.00;99864.94;5090802;28;20066;-62
2022/11/28 16:09:06;;;;;;;6.88;4.68;;;;;;;7.61;100.00;99866.06;5092787;28;20119;-60
2022/11/28 16:11:34;;;;;;;7.35;4.78;;;;;;;7.62;100.00;99861.59;5090917;28;20032;-62
2022/11/28 16:14:07;;;;;;;9.60;5.85;;;;;;;7.61;100.00;99865.25;5091411;28;20039;-64
2022/11/28 16:16:36;;;;;;;6.88;4.78;;;;;;;7.62;100.00;99866.91;5092403;28;20039;-63
2022/11/28 16:19:27;;;;;;;7.00;4.97;;;;;;;7.56;100.00;99870.19;5092383;28;20036;-61
2022/11/28 16:22:06;;;;;;;7.53;4.88;;;;;;;7.51;100.00;99869.88;5092055;28;20469;-68
2022/11/28 16:24:43;;;;;;;7.63;4.80;;;;;;;7.49;100.00;99871.84;5092269;28;20123;-68
2022/11/28 16:27:24;;;;;;;10.82;5.38;;;;;;;7.50;100.00;99870.88;5092258;28;20397;-69
2022/11/28 16:29:50;;;;;;;8.40;5.32;;;;;;;7.49;100.00;99877.16;5092150;28;20098;-69
2022/11/28 16:32:34;;;;;;;8.07;4.38;;;;;;;7.51;100.00;99877.84;5092082;28;20382;-69
2022/11/28 16:35:03;;;;;;;6.63;4.57;;;;;;;7.51;100.00;99875.19;5092430;28;20048;-70
2022/11/28 16:37:31;;;;;;;11.95;5.53;;;;;;;7.50;100.00;99878.84;5092920;28;20040;-69
2022/11/28 16:40:03;;;;;;;;;;;;;;;7.50;100.00;99870.88;5092889;28;20496;-69
2022/11/28 16:42:30;;;;;;;7.28;4.50;;;;;;;7.46;100.00;99880.13;5091870;28;19922;-69
2022/11/28 16:44:56;;;;;;;7.00;5.07;;;;;;;7.43;100.00;99877.78;5090714;28;20035;-68
2022/11/28 16:47:29;;;;;;;7.47;4.60;;;;;;;7.45;100.00;99881.97;5091945;28;20031;-68
2022/11/28 16:50:16;;;;;;;8.82;4.82;;;;;;;7.47;100.00;99887.09;5090931;28;20522;-69
2022/11/28 16:52:44;;;;;;;;;;;;;;;7.39;100.00;99881.78;5091222;28;20032;-69
2022/11/28 16:55:43;;;;;;;10.90;4.78;;;;;;;7.44;100.00;99882.13;5092069;28;19912;-69
2022/11/28 16:58:20;;;;;;;7.28;4.40;;;;;;;7.44;100.00;99875.00;5030508;28;20050;-69
2022/11/28 17:01:04;;;;;;;7.28;4.88;;;;;;;7.45;100.00;99876.66;5091659;28;20074;-69
2022/11/28 17:03:50;;;;;;;7.28;5.07;;;;;;;7.48;100.00;99880.78;5090583;28;20085;-69
2022/11/28 17:06:22;;;;;;;7.43;5.22;;;;;;;7.48;100.00;99878.97;5092007;28;20047;-69
2022/11/28 17:08:48;;;;;;;5.90;4.28;;;;;;;7.47;100.00;99881.78;5091751;28;20036;-69
2022/11/28 17:11:16;;;;;;;6.75;4.43;;;;;;;7.48;100.00;99878.16;5089809;28;20027;-68
2022/11/28 17:13:42;;;;;;;7.88;4.35;;;;;;;7.46;100.00;99880.97;5091598;28;20040;-69
2022/11/28 17:16:14;;;;;;;9.00;5.40;;;;;;;7.47;100.00;99879.13;5091367;28;20043;-69
2022/11/28 17:18:40;;;;;;;8.85;4.40;;;;;;;7.44;100.00;99879.47;5091802;28;20040;-69
2022/11/28 17:21:08;;;;;;;7.18;4.40;;;;;;;7.44;100.00;99885.59;5091244;28;20031;-69
2022/11/28 17:23:33;;;;;;;;;;;;;;;7.47;100.00;99881.78;5090813;28;20051;-69
2022/11/28 17:25:58;;;;;;;7.85;4.38;;;;;;;7.45;100.00;99881.97;5091660;28;20380;-68